Main page
METAR-TAF:

METAR-TAF

Airports :

Leite Lopes Airport

Ribeirão Preto, São Paulo, Brazil

latitude: 21-08S, longitude: 047-47W, elevation: 549 m

Current weather observation

The report was made 46 minutes ago, at 07:00 UTC
Wind 4 kt from the Southeast
Temperature 16°C
Humidity 88%
Pressure 1015 hPa
Visibility 10 km or more
no clouds below 1500 m and no cumulonimbus

METAR: SBRP 200700Z 14004KT CAVOK 16/14 Q1015

Time: 04:46 (07:46 UTC)

Forecast

The report was made 5 hours and 46 minutes ago, at 02:00 UTC
Forecast valid from 20 at 06 UTC to 21 at 06 UTC
Wind 3 kt from the East
Visibility 10 km or more
no clouds below 1500 m and no cumulonimbus
Becoming
from 20 at 14 UTC to 20 at 16 UTC
Wind 5 kt from the West/Southwest
Becoming
from 20 at 22 UTC to 20 at 24 UTC
Wind 5 kt from the East

TAF: SBRP 200200Z 2006/2106 10003KT CAVOK TN16/2009Z TX30/2018Z BECMG 2014/2016 25005KT BECMG 2022/2024 10005KT RMK PGE

Weather observations and forecasts of more than 4000 airports (METAR and TAF reports).

The available stations are represented by yellow and red dots on the map.

Hover mouse over dot to see the name of the station.

Then click to see weather observations and forecasts.

To change the map : click on the green buttons with a black cross to zoom in, on the green button with a dash to zoom out, or on the green arrows for adjacent maps.


METAR-TAF: